sensor_id;sensor_type;location;lat;lon;timestamp;temperature;humidity
9497;DHT22;4786;51.270;4.456;2023-07-28T00:00:04;19.20;99.90
9497;DHT22;4786;51.270;4.456;2023-07-28T00:02:31;19.20;99.90
9497;DHT22;4786;51.270;4.456;2023-07-28T00:04:56;19.30;99.90
9497;DHT22;4786;51.270;4.456;2023-07-28T00:07:22;19.20;99.90
9497;DHT22;4786;51.270;4.456;2023-07-28T00:09:48;19.20;99.90
9497;DHT22;4786;51.270;4.456;2023-07-28T00:12:14;19.20;99.90
9497;DHT22;4786;51.270;4.456;2023-07-28T00:14:40;19.20;99.90
9497;DHT22;4786;51.270;4.456;2023-07-28T00:17:06;19.20;99.90
9497;DHT22;4786;51.270;4.456;2023-07-28T00:19:32;19.20;99.90
9497;DHT22;4786;51.270;4.456;2023-07-28T00:21:58;19.20;99.90
9497;DHT22;4786;51.270;4.456;2023-07-28T00:24:24;19.20;99.90
9497;DHT22;4786;51.270;4.456;2023-07-28T00:26:50;19.30;99.90
9497;DHT22;4786;51.270;4.456;2023-07-28T00:29:16;19.30;99.90
9497;DHT22;4786;51.270;4.456;2023-07-28T00:31:43;19.30;99.90
9497;DHT22;4786;51.270;4.456;2023-07-28T00:34:09;19.20;99.90
9497;DHT22;4786;51.270;4.456;2023-07-28T00:36:35;19.20;99.90
9497;DHT22;4786;51.270;4.456;2023-07-28T00:39:01;19.20;99.90
9497;DHT22;4786;51.270;4.456;2023-07-28T00:41:27;19.20;99.90
9497;DHT22;4786;51.270;4.456;2023-07-28T00:43:53;19.20;99.90
9497;DHT22;4786;51.270;4.456;2023-07-28T00:46:19;19.20;99.90
9497;DHT22;4786;51.270;4.456;2023-07-28T00:48:46;19.30;99.90
9497;DHT22;4786;51.270;4.456;2023-07-28T00:51:11;19.20;99.90
9497;DHT22;4786;51.270;4.456;2023-07-28T00:53:38;19.20;99.90
9497;DHT22;4786;51.270;4.456;2023-07-28T00:56:05;19.20;99.90
9497;DHT22;4786;51.270;4.456;2023-07-28T00:58:32;19.30;99.90
9497;DHT22;4786;51.270;4.456;2023-07-28T01:00:59;19.20;99.90
9497;DHT22;4786;51.270;4.456;2023-07-28T01:03:25;19.30;99.90
9497;DHT22;4786;51.270;4.456;2023-07-28T01:06:10;19.20;99.90
9497;DHT22;4786;51.270;4.456;2023-07-28T01:11:10;19.20;99.90
9497;DHT22;4786;51.270;4.456;2023-07-28T01:13:35;19.20;99.90
9497;DHT22;4786;51.270;4.456;2023-07-28T01:16:02;19.20;99.90
9497;DHT22;4786;51.270;4.456;2023-07-28T01:18:28;19.20;99.90
9497;DHT22;4786;51.270;4.456;2023-07-28T01:20:56;19.20;99.90
9497;DHT22;4786;51.270;4.456;2023-07-28T01:26:12;19.20;99.90
9497;DHT22;4786;51.270;4.456;2023-07-28T01:28:41;19.20;99.90
9497;DHT22;4786;51.270;4.456;2023-07-28T01:31:14;19.20;99.90
9497;DHT22;4786;51.270;4.456;2023-07-28T01:33:40;19.20;99.90
9497;DHT22;4786;51.270;4.456;2023-07-28T01:36:06;19.20;99.90
9497;DHT22;4786;51.270;4.456;2023-07-28T01:38:32;19.20;99.90
9497;DHT22;4786;51.270;4.456;2023-07-28T01:40:58;19.20;99.90
9497;DHT22;4786;51.270;4.456;2023-07-28T01:43:24;19.20;99.90
9497;DHT22;4786;51.270;4.456;2023-07-28T01:45:50;19.20;99.90
9497;DHT22;4786;51.270;4.456;2023-07-28T01:48:16;19.20;99.90
9497;DHT22;4786;51.270;4.456;2023-07-28T01:50:42;19.20;99.90
9497;DHT22;4786;51.270;4.456;2023-07-28T01:53:09;19.20;99.90
9497;DHT22;4786;51.270;4.456;2023-07-28T01:55:35;19.20;99.90
9497;DHT22;4786;51.270;4.456;2023-07-28T01:58:01;19.20;99.90
9497;DHT22;4786;51.270;4.456;2023-07-28T02:00:28;19.20;99.90
9497;DHT22;4786;51.270;4.456;2023-07-28T02:02:54;19.20;99.90
9497;DHT22;4786;51.270;4.456;2023-07-28T02:05:20;19.20;99.90
9497;DHT22;4786;51.270;4.456;2023-07-28T02:07:46;19.20;99.90
9497;DHT22;4786;51.270;4.456;2023-07-28T02:10:12;19.20;99.90
9497;DHT22;4786;51.270;4.456;2023-07-28T02:12:39;19.20;99.90
9497;DHT22;4786;51.270;4.456;2023-07-28T02:15:06;19.20;99.90
9497;DHT22;4786;51.270;4.456;2023-07-28T02:17:32;19.20;99.90
9497;DHT22;4786;51.270;4.456;2023-07-28T02:19:58;19.20;99.90
9497;DHT22;4786;51.270;4.456;2023-07-28T02:22:25;19.20;99.90
9497;DHT22;4786;51.270;4.456;2023-07-28T02:24:50;19.20;99.90
9497;DHT22;4786;51.270;4.456;2023-07-28T02:27:17;19.20;99.90
9497;DHT22;4786;51.270;4.456;2023-07-28T02:29:42;19.30;99.90
9497;DHT22;4786;51.270;4.456;2023-07-28T02:32:08;19.30;99.90
9497;DHT22;4786;51.270;4.456;2023-07-28T02:34:34;19.20;99.90
9497;DHT22;4786;51.270;4.456;2023-07-28T02:37:01;19.20;99.90
9497;DHT22;4786;51.270;4.456;2023-07-28T02:39:27;19.20;99.90
9497;DHT22;4786;51.270;4.456;2023-07-28T02:41:54;19.20;99.90
9497;DHT22;4786;51.270;4.456;2023-07-28T02:44:20;19.20;99.90
9497;DHT22;4786;51.270;4.456;2023-07-28T02:46:46;19.20;99.90
9497;DHT22;4786;51.270;4.456;2023-07-28T02:49:12;19.20;99.90
9497;DHT22;4786;51.270;4.456;2023-07-28T02:51:38;19.20;99.90
9497;DHT22;4786;51.270;4.456;2023-07-28T02:54:04;19.20;99.90
9497;DHT22;4786;51.270;4.456;2023-07-28T02:56:31;19.20;99.90
9497;DHT22;4786;51.270;4.456;2023-07-28T02:59:00;19.20;99.90
9497;DHT22;4786;51.270;4.456;2023-07-28T03:01:26;19.20;99.90
9497;DHT22;4786;51.270;4.456;2023-07-28T03:03:55;19.20;99.90
9497;DHT22;4786;51.270;4.456;2023-07-28T03:06:21;19.20;99.90
9497;DHT22;4786;51.270;4.456;2023-07-28T03:08:47;19.20;99.90
9497;DHT22;4786;51.270;4.456;2023-07-28T03:11:12;19.30;99.90
9497;DHT22;4786;51.270;4.456;2023-07-28T03:13:38;19.20;99.90
9497;DHT22;4786;51.270;4.456;2023-07-28T03:16:04;19.20;99.90
9497;DHT22;4786;51.270;4.456;2023-07-28T03:18:30;19.30;99.90
9497;DHT22;4786;51.270;4.456;2023-07-28T03:20:56;19.20;99.90
9497;DHT22;4786;51.270;4.456;2023-07-28T03:23:22;19.30;99.90
9497;DHT22;4786;51.270;4.456;2023-07-28T03:25:48;19.30;99.90
9497;DHT22;4786;51.270;4.456;2023-07-28T03:28:13;19.30;99.90
9497;DHT22;4786;51.270;4.456;2023-07-28T03:30:39;19.30;99.90
9497;DHT22;4786;51.270;4.456;2023-07-28T03:33:06;19.30;99.90
9497;DHT22;4786;51.270;4.456;2023-07-28T03:35:32;19.30;99.90
9497;DHT22;4786;51.270;4.456;2023-07-28T03:37:58;19.30;99.90
9497;DHT22;4786;51.270;4.456;2023-07-28T03:40:27;19.30;99.90
9497;DHT22;4786;51.270;4.456;2023-07-28T03:42:53;19.30;99.90
9497;DHT22;4786;51.270;4.456;2023-07-28T03:45:19;19.30;99.90
9497;DHT22;4786;51.270;4.456;2023-07-28T03:47:46;19.30;99.90
9497;DHT22;4786;51.270;4.456;2023-07-28T03:50:14;19.30;99.90
9497;DHT22;4786;51.270;4.456;2023-07-28T03:52:41;19.20;99.90
9497;DHT22;4786;51.270;4.456;2023-07-28T03:55:07;19.20;99.90
9497;DHT22;4786;51.270;4.456;2023-07-28T03:57:33;19.20;99.90
9497;DHT22;4786;51.270;4.456;2023-07-28T03:59:59;19.30;99.90
9497;DHT22;4786;51.270;4.456;2023-07-28T04:02:25;19.30;99.90
9497;DHT22;4786;51.270;4.456;2023-07-28T04:04:56;19.30;99.90
9497;DHT22;4786;51.270;4.456;2023-07-28T04:07:22;19.30;99.90
9497;DHT22;4786;51.270;4.456;2023-07-28T04:09:48;19.30;99.90
9497;DHT22;4786;51.270;4.456;2023-07-28T04:12:15;19.30;99.90
9497;DHT22;4786;51.270;4.456;2023-07-28T04:14:40;19.20;99.90
9497;DHT22;4786;51.270;4.456;2023-07-28T04:17:06;19.20;99.90
9497;DHT22;4786;51.270;4.456;2023-07-28T04:19:33;19.20;99.90
9497;DHT22;4786;51.270;4.456;2023-07-28T04:21:59;19.30;99.90
9497;DHT22;4786;51.270;4.456;2023-07-28T04:24:26;19.30;99.90
9497;DHT22;4786;51.270;4.456;2023-07-28T04:26:52;19.30;99.90
9497;DHT22;4786;51.270;4.456;2023-07-28T04:29:19;19.30;99.90
9497;DHT22;4786;51.270;4.456;2023-07-28T04:31:45;19.30;99.90
9497;DHT22;4786;51.270;4.456;2023-07-28T04:34:11;19.30;99.90
9497;DHT22;4786;51.270;4.456;2023-07-28T04:36:37;19.30;99.90
9497;DHT22;4786;51.270;4.456;2023-07-28T04:39:03;19.30;99.90
9497;DHT22;4786;51.270;4.456;2023-07-28T04:41:29;19.30;99.90
9497;DHT22;4786;51.270;4.456;2023-07-28T04:43:56;19.30;99.90
9497;DHT22;4786;51.270;4.456;2023-07-28T04:46:22;19.30;99.90
9497;DHT22;4786;51.270;4.456;2023-07-28T04:48:48;19.30;99.90
9497;DHT22;4786;51.270;4.456;2023-07-28T04:51:13;19.30;99.90
9497;DHT22;4786;51.270;4.456;2023-07-28T04:53:39;19.30;99.90
9497;DHT22;4786;51.270;4.456;2023-07-28T04:56:04;19.30;99.90
9497;DHT22;4786;51.270;4.456;2023-07-28T04:58:31;19.30;99.90
9497;DHT22;4786;51.270;4.456;2023-07-28T05:00:57;19.30;99.90
9497;DHT22;4786;51.270;4.456;2023-07-28T05:03:23;19.30;99.90
9497;DHT22;4786;51.270;4.456;2023-07-28T05:05:50;19.30;99.90
9497;DHT22;4786;51.270;4.456;2023-07-28T05:08:16;19.30;99.90
9497;DHT22;4786;51.270;4.456;2023-07-28T05:10:42;19.30;99.90
9497;DHT22;4786;51.270;4.456;2023-07-28T05:13:10;19.40;99.90
9497;DHT22;4786;51.270;4.456;2023-07-28T05:15:36;19.40;99.90
9497;DHT22;4786;51.270;4.456;2023-07-28T05:18:03;19.30;99.90
9497;DHT22;4786;51.270;4.456;2023-07-28T05:20:29;19.40;99.90
9497;DHT22;4786;51.270;4.456;2023-07-28T05:22:55;19.40;99.90
9497;DHT22;4786;51.270;4.456;2023-07-28T05:25:21;19.40;99.90
9497;DHT22;4786;51.270;4.456;2023-07-28T05:27:47;19.30;99.90
9497;DHT22;4786;51.270;4.456;2023-07-28T05:30:13;19.40;99.90
9497;DHT22;4786;51.270;4.456;2023-07-28T05:32:39;19.40;99.90
9497;DHT22;4786;51.270;4.456;2023-07-28T05:35:06;19.30;99.90
9497;DHT22;4786;51.270;4.456;2023-07-28T05:37:32;19.30;99.90
9497;DHT22;4786;51.270;4.456;2023-07-28T05:39:58;19.40;99.90
9497;DHT22;4786;51.270;4.456;2023-07-28T05:42:23;19.40;99.90
9497;DHT22;4786;51.270;4.456;2023-07-28T05:44:49;19.40;99.90
9497;DHT22;4786;51.270;4.456;2023-07-28T05:47:18;19.40;99.90
9497;DHT22;4786;51.270;4.456;2023-07-28T05:49:44;19.40;99.90
9497;DHT22;4786;51.270;4.456;2023-07-28T05:52:10;19.40;99.90
9497;DHT22;4786;51.270;4.456;2023-07-28T05:54:36;19.50;99.90
9497;DHT22;4786;51.270;4.456;2023-07-28T05:57:02;19.40;99.90
9497;DHT22;4786;51.270;4.456;2023-07-28T05:59:28;19.50;99.90
9497;DHT22;4786;51.270;4.456;2023-07-28T06:01:55;19.50;99.90
9497;DHT22;4786;51.270;4.456;2023-07-28T06:04:20;19.60;99.90
9497;DHT22;4786;51.270;4.456;2023-07-28T06:06:47;19.60;99.90
9497;DHT22;4786;51.270;4.456;2023-07-28T06:09:13;19.60;99.90
9497;DHT22;4786;51.270;4.456;2023-07-28T06:11:38;19.70;99.90
9497;DHT22;4786;51.270;4.456;2023-07-28T06:14:04;19.70;99.90
9497;DHT22;4786;51.270;4.456;2023-07-28T06:16:30;19.70;99.90
9497;DHT22;4786;51.270;4.456;2023-07-28T06:18:56;19.70;99.90
9497;DHT22;4786;51.270;4.456;2023-07-28T06:21:22;19.80;99.90
9497;DHT22;4786;51.270;4.456;2023-07-28T06:23:48;19.80;99.90
9497;DHT22;4786;51.270;4.456;2023-07-28T06:26:14;19.80;99.90
9497;DHT22;4786;51.270;4.456;2023-07-28T06:28:40;19.90;99.90
9497;DHT22;4786;51.270;4.456;2023-07-28T06:31:05;19.90;99.90
9497;DHT22;4786;51.270;4.456;2023-07-28T06:33:32;19.90;99.90
9497;DHT22;4786;51.270;4.456;2023-07-28T06:35:58;19.90;99.90
9497;DHT22;4786;51.270;4.456;2023-07-28T06:38:24;19.90;99.90
9497;DHT22;4786;51.270;4.456;2023-07-28T06:40:51;19.90;99.90
9497;DHT22;4786;51.270;4.456;2023-07-28T06:43:17;19.90;99.90
9497;DHT22;4786;51.270;4.456;2023-07-28T06:45:44;20.00;99.90
9497;DHT22;4786;51.270;4.456;2023-07-28T06:48:10;20.10;99.90
9497;DHT22;4786;51.270;4.456;2023-07-28T06:50:36;20.10;99.90
9497;DHT22;4786;51.270;4.456;2023-07-28T06:53:02;20.10;99.90
9497;DHT22;4786;51.270;4.456;2023-07-28T06:55:29;20.20;99.90
9497;DHT22;4786;51.270;4.456;2023-07-28T06:57:55;20.20;99.90
9497;DHT22;4786;51.270;4.456;2023-07-28T07:00:21;20.20;99.90
9497;DHT22;4786;51.270;4.456;2023-07-28T07:02:48;20.20;99.90
9497;DHT22;4786;51.270;4.456;2023-07-28T07:05:14;20.20;99.90
9497;DHT22;4786;51.270;4.456;2023-07-28T07:07:40;20.20;99.90
9497;DHT22;4786;51.270;4.456;2023-07-28T07:10:07;20.30;99.90
9497;DHT22;4786;51.270;4.456;2023-07-28T07:12:33;20.30;99.90
9497;DHT22;4786;51.270;4.456;2023-07-28T07:14:59;20.30;99.90
9497;DHT22;4786;51.270;4.456;2023-07-28T07:17:25;20.30;99.90
9497;DHT22;4786;51.270;4.456;2023-07-28T07:19:51;20.30;99.90
9497;DHT22;4786;51.270;4.456;2023-07-28T07:22:17;20.30;99.90
9497;DHT22;4786;51.270;4.456;2023-07-28T07:24:43;20.40;99.90
9497;DHT22;4786;51.270;4.456;2023-07-28T07:27:09;20.40;99.90
9497;DHT22;4786;51.270;4.456;2023-07-28T07:29:37;20.40;99.90
9497;DHT22;4786;51.270;4.456;2023-07-28T07:32:05;20.50;99.90
9497;DHT22;4786;51.270;4.456;2023-07-28T07:34:32;20.60;99.90
9497;DHT22;4786;51.270;4.456;2023-07-28T07:36:58;20.60;99.90
9497;DHT22;4786;51.270;4.456;2023-07-28T07:39:25;20.70;99.90
9497;DHT22;4786;51.270;4.456;2023-07-28T07:41:50;20.70;99.90
9497;DHT22;4786;51.270;4.456;2023-07-28T07:44:17;20.70;99.90
9497;DHT22;4786;51.270;4.456;2023-07-28T07:46:43;20.70;99.90
9497;DHT22;4786;51.270;4.456;2023-07-28T07:49:08;20.80;99.90
9497;DHT22;4786;51.270;4.456;2023-07-28T07:51:34;20.90;99.90
9497;DHT22;4786;51.270;4.456;2023-07-28T07:54:00;20.90;99.90
9497;DHT22;4786;51.270;4.456;2023-07-28T07:56:29;21.10;99.90
9497;DHT22;4786;51.270;4.456;2023-07-28T07:58:55;21.20;99.90
9497;DHT22;4786;51.270;4.456;2023-07-28T08:01:21;21.40;99.90
9497;DHT22;4786;51.270;4.456;2023-07-28T08:03:47;21.50;99.90
9497;DHT22;4786;51.270;4.456;2023-07-28T08:06:13;21.60;99.90
9497;DHT22;4786;51.270;4.456;2023-07-28T08:08:39;21.70;99.90
9497;DHT22;4786;51.270;4.456;2023-07-28T08:11:05;21.80;99.90
9497;DHT22;4786;51.270;4.456;2023-07-28T08:13:33;21.80;99.90
9497;DHT22;4786;51.270;4.456;2023-07-28T08:15:59;22.00;99.90
9497;DHT22;4786;51.270;4.456;2023-07-28T08:18:24;22.20;99.90
9497;DHT22;4786;51.270;4.456;2023-07-28T08:20:50;22.30;99.90
9497;DHT22;4786;51.270;4.456;2023-07-28T08:23:16;22.40;99.90
9497;DHT22;4786;51.270;4.456;2023-07-28T08:25:42;22.40;99.90
9497;DHT22;4786;51.270;4.456;2023-07-28T08:28:08;22.30;99.90
9497;DHT22;4786;51.270;4.456;2023-07-28T08:30:34;22.30;99.90
9497;DHT22;4786;51.270;4.456;2023-07-28T08:33:00;22.20;99.90
9497;DHT22;4786;51.270;4.456;2023-07-28T08:35:27;22.10;99.90
9497;DHT22;4786;51.270;4.456;2023-07-28T08:37:54;22.10;99.90
9497;DHT22;4786;51.270;4.456;2023-07-28T08:40:19;22.10;99.90
9497;DHT22;4786;51.270;4.456;2023-07-28T08:42:45;22.10;99.90
9497;DHT22;4786;51.270;4.456;2023-07-28T08:45:11;22.00;99.90
9497;DHT22;4786;51.270;4.456;2023-07-28T08:47:38;22.10;99.90
9497;DHT22;4786;51.270;4.456;2023-07-28T08:50:04;22.20;99.90
9497;DHT22;4786;51.270;4.456;2023-07-28T08:52:31;22.30;99.90
9497;DHT22;4786;51.270;4.456;2023-07-28T08:54:57;22.40;99.90
9497;DHT22;4786;51.270;4.456;2023-07-28T08:57:24;22.20;99.90
9497;DHT22;4786;51.270;4.456;2023-07-28T08:59:49;22.30;99.90
9497;DHT22;4786;51.270;4.456;2023-07-28T09:02:17;22.40;99.90
9497;DHT22;4786;51.270;4.456;2023-07-28T09:04:44;22.40;99.90
9497;DHT22;4786;51.270;4.456;2023-07-28T09:07:10;22.50;99.90
9497;DHT22;4786;51.270;4.456;2023-07-28T09:09:36;22.50;99.90
9497;DHT22;4786;51.270;4.456;2023-07-28T09:12:02;22.50;99.90
9497;DHT22;4786;51.270;4.456;2023-07-28T09:14:29;22.60;99.90
9497;DHT22;4786;51.270;4.456;2023-07-28T09:16:55;22.60;99.90
9497;DHT22;4786;51.270;4.456;2023-07-28T09:19:21;22.80;99.90
9497;DHT22;4786;51.270;4.456;2023-07-28T09:21:58;22.90;99.90
9497;DHT22;4786;51.270;4.456;2023-07-28T09:24:33;23.10;99.90
9497;DHT22;4786;51.270;4.456;2023-07-28T09:27:00;23.00;99.90
9497;DHT22;4786;51.270;4.456;2023-07-28T09:29:27;23.20;99.90
9497;DHT22;4786;51.270;4.456;2023-07-28T09:32:06;23.30;99.90
9497;DHT22;4786;51.270;4.456;2023-07-28T09:34:32;23.40;99.90
9497;DHT22;4786;51.270;4.456;2023-07-28T09:36:59;23.60;99.90
9497;DHT22;4786;51.270;4.456;2023-07-28T09:39:26;23.80;99.90
9497;DHT22;4786;51.270;4.456;2023-07-28T09:41:52;23.80;99.90
9497;DHT22;4786;51.270;4.456;2023-07-28T09:44:18;23.90;99.90
9497;DHT22;4786;51.270;4.456;2023-07-28T09:46:56;23.90;99.90
9497;DHT22;4786;51.270;4.456;2023-07-28T09:49:28;23.90;99.90
9497;DHT22;4786;51.270;4.456;2023-07-28T09:51:54;23.80;99.90
9497;DHT22;4786;51.270;4.456;2023-07-28T09:54:28;23.90;99.90
9497;DHT22;4786;51.270;4.456;2023-07-28T09:56:56;23.90;99.90
9497;DHT22;4786;51.270;4.456;2023-07-28T09:59:31;24.00;99.90
9497;DHT22;4786;51.270;4.456;2023-07-28T10:01:58;24.10;99.90
9497;DHT22;4786;51.270;4.456;2023-07-28T10:04:24;24.20;99.90
9497;DHT22;4786;51.270;4.456;2023-07-28T10:06:52;24.30;99.90
9497;DHT22;4786;51.270;4.456;2023-07-28T10:09:26;24.50;99.90
9497;DHT22;4786;51.270;4.456;2023-07-28T10:11:52;24.50;99.90
9497;DHT22;4786;51.270;4.456;2023-07-28T10:14:28;24.60;99.90
9497;DHT22;4786;51.270;4.456;2023-07-28T10:16:54;24.80;99.90
9497;DHT22;4786;51.270;4.456;2023-07-28T10:19:21;24.90;99.90
9497;DHT22;4786;51.270;4.456;2023-07-28T10:21:47;24.90;99.90
9497;DHT22;4786;51.270;4.456;2023-07-28T10:24:13;25.00;99.90
9497;DHT22;4786;51.270;4.456;2023-07-28T10:26:41;24.90;99.90
9497;DHT22;4786;51.270;4.456;2023-07-28T10:29:16;24.80;99.90
9497;DHT22;4786;51.270;4.456;2023-07-28T10:31:52;24.70;99.90
9497;DHT22;4786;51.270;4.456;2023-07-28T10:34:18;24.70;99.90
9497;DHT22;4786;51.270;4.456;2023-07-28T10:36:45;24.60;99.90
9497;DHT22;4786;51.270;4.456;2023-07-28T10:39:17;24.60;99.90
9497;DHT22;4786;51.270;4.456;2023-07-28T10:42:05;24.70;99.90
9497;DHT22;4786;51.270;4.456;2023-07-28T10:44:32;24.60;99.90
9497;DHT22;4786;51.270;4.456;2023-07-28T10:46:58;24.40;99.90
9497;DHT22;4786;51.270;4.456;2023-07-28T10:49:25;24.40;99.90
9497;DHT22;4786;51.270;4.456;2023-07-28T10:51:51;24.40;99.90
9497;DHT22;4786;51.270;4.456;2023-07-28T10:54:17;24.20;99.90
9497;DHT22;4786;51.270;4.456;2023-07-28T10:56:46;24.20;99.90
9497;DHT22;4786;51.270;4.456;2023-07-28T10:59:12;24.10;99.90
9497;DHT22;4786;51.270;4.456;2023-07-28T11:01:40;24.10;99.90
9497;DHT22;4786;51.270;4.456;2023-07-28T11:04:17;24.10;99.90
9497;DHT22;4786;51.270;4.456;2023-07-28T11:06:47;24.20;99.90
9497;DHT22;4786;51.270;4.456;2023-07-28T11:09:15;24.20;99.90
9497;DHT22;4786;51.270;4.456;2023-07-28T11:11:42;24.10;99.90
9497;DHT22;4786;51.270;4.456;2023-07-28T11:14:09;24.20;99.90
9497;DHT22;4786;51.270;4.456;2023-07-28T11:16:37;24.30;99.90
9497;DHT22;4786;51.270;4.456;2023-07-28T11:19:08;24.30;99.90
9497;DHT22;4786;51.270;4.456;2023-07-28T11:21:39;24.30;99.90
9497;DHT22;4786;51.270;4.456;2023-07-28T11:24:09;24.30;99.90
9497;DHT22;4786;51.270;4.456;2023-07-28T11:26:36;24.30;99.90
9497;DHT22;4786;51.270;4.456;2023-07-28T11:29:03;24.10;99.90
9497;DHT22;4786;51.270;4.456;2023-07-28T11:31:30;23.90;99.90
9497;DHT22;4786;51.270;4.456;2023-07-28T11:33:56;23.80;99.90
9497;DHT22;4786;51.270;4.456;2023-07-28T11:36:27;23.80;99.90
9497;DHT22;4786;51.270;4.456;2023-07-28T11:38:54;23.80;99.90
9497;DHT22;4786;51.270;4.456;2023-07-28T11:41:21;23.90;99.90
9497;DHT22;4786;51.270;4.456;2023-07-28T11:43:49;23.90;99.90
9497;DHT22;4786;51.270;4.456;2023-07-28T11:46:41;23.80;99.90
9497;DHT22;4786;51.270;4.456;2023-07-28T11:49:18;23.70;99.90
9497;DHT22;4786;51.270;4.456;2023-07-28T11:51:48;23.70;99.90
9497;DHT22;4786;51.270;4.456;2023-07-28T11:54:16;23.50;99.90
9497;DHT22;4786;51.270;4.456;2023-07-28T11:56:44;23.40;99.90
9497;DHT22;4786;51.270;4.456;2023-07-28T11:59:11;23.30;99.90
9497;DHT22;4786;51.270;4.456;2023-07-28T12:01:58;23.20;99.90
9497;DHT22;4786;51.270;4.456;2023-07-28T12:07:02;22.80;99.90
9497;DHT22;4786;51.270;4.456;2023-07-28T12:09:53;22.80;99.90
9497;DHT22;4786;51.270;4.456;2023-07-28T12:12:20;23.00;99.90
9497;DHT22;4786;51.270;4.456;2023-07-28T12:14:46;23.10;99.90
9497;DHT22;4786;51.270;4.456;2023-07-28T12:17:22;23.20;99.90
9497;DHT22;4786;51.270;4.456;2023-07-28T12:22:25;23.70;99.90
9497;DHT22;4786;51.270;4.456;2023-07-28T12:24:58;23.90;99.90
9497;DHT22;4786;51.270;4.456;2023-07-28T12:27:24;24.00;99.90
9497;DHT22;4786;51.270;4.456;2023-07-28T12:29:52;24.10;99.90
9497;DHT22;4786;51.270;4.456;2023-07-28T12:32:18;24.20;99.90
9497;DHT22;4786;51.270;4.456;2023-07-28T12:34:44;24.20;99.90
9497;DHT22;4786;51.270;4.456;2023-07-28T12:37:09;24.30;99.90
9497;DHT22;4786;51.270;4.456;2023-07-28T12:39:37;24.20;99.90
9497;DHT22;4786;51.270;4.456;2023-07-28T12:42:07;24.10;99.90
9497;DHT22;4786;51.270;4.456;2023-07-28T12:44:35;24.10;99.90
9497;DHT22;4786;51.270;4.456;2023-07-28T12:47:01;24.10;99.90
9497;DHT22;4786;51.270;4.456;2023-07-28T12:49:28;24.10;99.90
9497;DHT22;4786;51.270;4.456;2023-07-28T12:51:58;24.30;99.90
9497;DHT22;4786;51.270;4.456;2023-07-28T12:54:25;24.30;99.90
9497;DHT22;4786;51.270;4.456;2023-07-28T12:56:55;24.50;99.90
9497;DHT22;4786;51.270;4.456;2023-07-28T12:59:21;24.70;99.90
9497;DHT22;4786;51.270;4.456;2023-07-28T13:01:47;24.80;99.90
9497;DHT22;4786;51.270;4.456;2023-07-28T13:04:13;24.70;99.90
9497;DHT22;4786;51.270;4.456;2023-07-28T13:06:39;24.70;99.90
9497;DHT22;4786;51.270;4.456;2023-07-28T13:09:07;24.70;99.90
9497;DHT22;4786;51.270;4.456;2023-07-28T13:11:34;24.50;99.90
9497;DHT22;4786;51.270;4.456;2023-07-28T13:14:00;24.40;99.90
9497;DHT22;4786;51.270;4.456;2023-07-28T13:16:25;24.20;99.90
9497;DHT22;4786;51.270;4.456;2023-07-28T13:18:52;24.00;99.90
9497;DHT22;4786;51.270;4.456;2023-07-28T13:21:18;23.90;99.90
9497;DHT22;4786;51.270;4.456;2023-07-28T13:23:44;23.70;99.90
9497;DHT22;4786;51.270;4.456;2023-07-28T13:26:10;23.60;99.90
9497;DHT22;4786;51.270;4.456;2023-07-28T13:28:36;23.60;99.90
9497;DHT22;4786;51.270;4.456;2023-07-28T13:31:02;23.60;99.90
9497;DHT22;4786;51.270;4.456;2023-07-28T13:33:29;23.70;99.90
9497;DHT22;4786;51.270;4.456;2023-07-28T13:35:56;23.80;99.90
9497;DHT22;4786;51.270;4.456;2023-07-28T13:38:22;24.00;99.90
9497;DHT22;4786;51.270;4.456;2023-07-28T13:40:48;24.00;99.90
9497;DHT22;4786;51.270;4.456;2023-07-28T13:43:14;24.10;99.90
9497;DHT22;4786;51.270;4.456;2023-07-28T13:45:39;24.20;99.90
9497;DHT22;4786;51.270;4.456;2023-07-28T13:48:05;24.20;99.90
9497;DHT22;4786;51.270;4.456;2023-07-28T13:50:31;24.30;99.90
9497;DHT22;4786;51.270;4.456;2023-07-28T13:52:57;24.20;99.90
9497;DHT22;4786;51.270;4.456;2023-07-28T13:55:23;24.10;99.90
9497;DHT22;4786;51.270;4.456;2023-07-28T13:57:48;24.10;99.90
9497;DHT22;4786;51.270;4.456;2023-07-28T14:00:15;24.10;99.90
9497;DHT22;4786;51.270;4.456;2023-07-28T14:02:41;24.30;99.90
9497;DHT22;4786;51.270;4.456;2023-07-28T14:05:08;24.40;99.90
9497;DHT22;4786;51.270;4.456;2023-07-28T14:07:34;24.40;99.90
9497;DHT22;4786;51.270;4.456;2023-07-28T14:10:01;24.40;99.90
9497;DHT22;4786;51.270;4.456;2023-07-28T14:12:27;24.70;99.90
9497;DHT22;4786;51.270;4.456;2023-07-28T14:14:53;24.90;99.90
9497;DHT22;4786;51.270;4.456;2023-07-28T14:17:19;24.90;99.90
9497;DHT22;4786;51.270;4.456;2023-07-28T14:19:45;24.90;99.90
9497;DHT22;4786;51.270;4.456;2023-07-28T14:22:12;24.90;99.90
9497;DHT22;4786;51.270;4.456;2023-07-28T14:24:38;24.80;99.90
9497;DHT22;4786;51.270;4.456;2023-07-28T14:27:05;24.80;99.90
9497;DHT22;4786;51.270;4.456;2023-07-28T14:29:31;24.70;99.90
9497;DHT22;4786;51.270;4.456;2023-07-28T14:31:57;24.70;99.90
9497;DHT22;4786;51.270;4.456;2023-07-28T14:34:23;24.60;99.90
9497;DHT22;4786;51.270;4.456;2023-07-28T14:36:49;24.60;99.90
9497;DHT22;4786;51.270;4.456;2023-07-28T14:39:15;24.50;99.90
9497;DHT22;4786;51.270;4.456;2023-07-28T14:41:41;24.40;99.90
9497;DHT22;4786;51.270;4.456;2023-07-28T14:44:08;24.50;99.90
9497;DHT22;4786;51.270;4.456;2023-07-28T14:46:34;24.60;99.90
9497;DHT22;4786;51.270;4.456;2023-07-28T14:48:59;24.60;99.90
9497;DHT22;4786;51.270;4.456;2023-07-28T14:51:25;24.60;99.90
9497;DHT22;4786;51.270;4.456;2023-07-28T14:53:52;24.60;99.90
9497;DHT22;4786;51.270;4.456;2023-07-28T14:56:18;24.70;99.90
9497;DHT22;4786;51.270;4.456;2023-07-28T14:58:46;24.70;99.90
9497;DHT22;4786;51.270;4.456;2023-07-28T15:01:12;24.70;99.90
9497;DHT22;4786;51.270;4.456;2023-07-28T15:03:38;24.70;99.90
9497;DHT22;4786;51.270;4.456;2023-07-28T15:06:05;24.70;99.90
9497;DHT22;4786;51.270;4.456;2023-07-28T15:08:31;24.80;99.90
9497;DHT22;4786;51.270;4.456;2023-07-28T15:10:57;24.80;99.90
9497;DHT22;4786;51.270;4.456;2023-07-28T15:13:23;25.00;99.90
9497;DHT22;4786;51.270;4.456;2023-07-28T15:15:50;25.00;99.90
9497;DHT22;4786;51.270;4.456;2023-07-28T15:18:16;25.10;99.90
9497;DHT22;4786;51.270;4.456;2023-07-28T15:20:42;25.10;99.90
9497;DHT22;4786;51.270;4.456;2023-07-28T15:23:09;25.20;99.90
9497;DHT22;4786;51.270;4.456;2023-07-28T15:25:35;25.30;99.90
9497;DHT22;4786;51.270;4.456;2023-07-28T15:28:03;25.30;99.90
9497;DHT22;4786;51.270;4.456;2023-07-28T15:30:29;25.40;99.90
9497;DHT22;4786;51.270;4.456;2023-07-28T15:32:55;25.40;99.90
9497;DHT22;4786;51.270;4.456;2023-07-28T15:35:22;25.50;99.90
9497;DHT22;4786;51.270;4.456;2023-07-28T15:37:47;25.50;99.90
9497;DHT22;4786;51.270;4.456;2023-07-28T15:40:14;25.50;99.90
9497;DHT22;4786;51.270;4.456;2023-07-28T15:42:40;25.30;99.90
9497;DHT22;4786;51.270;4.456;2023-07-28T15:45:06;25.30;99.90
9497;DHT22;4786;51.270;4.456;2023-07-28T15:47:34;25.20;99.90
9497;DHT22;4786;51.270;4.456;2023-07-28T15:50:01;25.10;99.90
9497;DHT22;4786;51.270;4.456;2023-07-28T15:52:30;25.00;99.90
9497;DHT22;4786;51.270;4.456;2023-07-28T15:54:56;25.10;99.90
9497;DHT22;4786;51.270;4.456;2023-07-28T15:57:22;25.10;99.90
9497;DHT22;4786;51.270;4.456;2023-07-28T15:59:48;25.10;99.90
9497;DHT22;4786;51.270;4.456;2023-07-28T16:02:14;25.10;99.90
9497;DHT22;4786;51.270;4.456;2023-07-28T16:04:40;25.10;99.90
9497;DHT22;4786;51.270;4.456;2023-07-28T16:07:06;25.10;99.90
9497;DHT22;4786;51.270;4.456;2023-07-28T16:09:31;25.20;99.90